Time;durP1;ratioP1;P1;durP2;ratioP2;P2;SDS_P1;SDS_P2;PMS_P1;PMS_P2;Temp;Humidity;BMP_temperature;BMP_pressure;BME280_temperature;BME280_humidity;BME280_pressure;Samples;Min_cycle;Max_cycle;Signal;HPM_P1;HPM_P2
2021/07/15 00:02:36;;;;;;;1.58;0.50;;;;;;;17.65;88.63;99596.09;10354436;28;20502;-61
2021/07/15 00:07:38;;;;;;;0.82;0.40;;;;;;;17.65;88.88;99606.00;10369429;28;20116;-61
2021/07/15 00:12:42;;;;;;;0.50;0.32;;;;;;;17.70;88.71;99590.16;10368907;28;20069;-61
2021/07/15 00:17:44;;;;;;;;;;;;;;;17.69;88.71;99591.16;10375336;28;20053;-61
2021/07/15 00:22:46;;;;;;;1.40;0.35;;;;;;;17.67;88.77;99582.44;10375239;28;19921;-62
2021/07/15 00:27:48;;;;;;;0.90;0.40;;;;;;;17.67;89.10;99575.19;10349332;28;20396;-62
2021/07/15 00:32:49;;;;;;;1.83;0.30;;;;;;;17.62;89.02;99585.66;10380684;28;20137;-61
2021/07/15 00:37:51;;;;;;;2.65;0.47;;;;;;;17.59;89.33;99596.81;10379613;28;20049;-61
2021/07/15 00:42:53;;;;;;;0.43;0.20;;;;;;;17.63;89.07;99608.06;10378278;28;20050;-61
2021/07/15 00:47:55;;;;;;;1.60;0.40;;;;;;;17.63;88.88;99606.19;10381141;28;20102;-61
2021/07/15 00:52:57;;;;;;;1.00;0.20;;;;;;;17.64;88.22;99593.59;10366426;28;20053;-61
2021/07/15 00:58:00;;;;;;;1.27;0.40;;;;;;;17.71;88.11;99609.81;10383503;28;20057;-62
2021/07/15 01:03:02;;;;;;;1.00;0.20;;;;;;;17.73;87.57;99597.00;10371650;28;20173;-61
2021/07/15 01:08:08;;;;;;;2.35;0.30;;;;;;;17.79;88.01;99612.41;10386659;28;20049;-61
2021/07/15 01:13:19;;;;;;;1.20;0.40;;;;;;;17.79;87.67;99620.47;10389775;28;20486;-61
2021/07/15 01:18:44;;;;;;;0.50;0.30;;;;;;;17.77;87.57;99625.22;10393831;28;20050;-62
2021/07/15 01:23:57;;;;;;;0.47;0.38;;;;;;;17.78;87.32;99634.97;10394743;28;20521;-62
2021/07/15 01:29:17;;;;;;;1.73;0.40;;;;;;;17.76;87.28;99640.53;10383727;28;20045;-61
2021/07/15 01:34:20;;;;;;;0.80;0.40;;;;;;;17.79;86.97;99642.00;10385517;28;20728;-61
2021/07/15 01:39:32;;;;;;;1.65;0.40;;;;;;;17.80;87.24;99638.31;10386497;28;20128;-62
2021/07/15 01:44:34;;;;;;;0.90;0.30;;;;;;;17.80;86.34;99641.00;10390648;28;20037;-61
2021/07/15 01:49:36;;;;;;;1.27;0.60;;;;;;;17.82;86.64;99649.75;10388877;28;20049;-61
2021/07/15 01:54:38;;;;;;;0.55;0.50;;;;;;;17.81;86.21;99653.44;10366224;28;20774;-61
2021/07/15 01:59:42;;;;;;;0.90;0.30;;;;;;;17.81;86.63;99648.06;10385332;28;20061;-60
2021/07/15 02:04:45;;;;;;;0.80;0.20;;;;;;;17.81;87.21;99648.06;10378205;28;20053;-61
2021/07/15 02:09:48;;;;;;;0.60;0.30;;;;;;;17.83;87.46;99656.78;10376074;28;20049;-61
2021/07/15 02:14:52;;;;;;;1.63;0.70;;;;;;;17.84;88.14;99661.16;10367699;28;20041;-62
2021/07/15 02:19:56;;;;;;;0.98;0.60;;;;;;;17.80;88.61;99662.53;10389716;28;20044;-61
2021/07/15 02:24:58;;;;;;;1.67;0.73;;;;;;;17.75;89.02;99670.34;10414350;28;20036;-61
2021/07/15 02:29:59;;;;;;;0.75;0.70;;;;;;;17.71;89.86;99683.31;10430941;28;20505;-60
2021/07/15 02:35:17;;;;;;;0.60;0.60;;;;;;;17.68;90.17;99667.53;10423803;28;20041;-61
2021/07/15 02:40:19;;;;;;;0.82;0.60;;;;;;;17.67;90.53;99669.41;10428579;28;20056;-61
2021/07/15 02:45:21;;;;;;;0.52;0.50;;;;;;;17.69;90.79;99665.69;10424896;28;20055;-61
2021/07/15 02:50:26;;;;;;;2.83;0.80;;;;;;;17.70;90.81;99659.28;10432525;28;20057;-61
2021/07/15 02:55:28;;;;;;;1.00;0.85;;;;;;;17.66;91.32;99646.19;10418911;28;20072;-61
2021/07/15 03:00:40;;;;;;;1.45;1.30;;;;;;;17.63;91.54;99651.13;10422223;28;20672;-61
2021/07/15 03:05:51;;;;;;;1.88;1.30;;;;;;;17.60;91.91;99644.22;10419310;28;20052;-61
2021/07/15 03:10:55;;;;;;;1.23;1.13;;;;;;;17.63;91.79;99651.13;10415939;28;20057;-61
2021/07/15 03:15:57;;;;;;;;;;;;;;;17.71;92.11;99671.72;10410986;28;20265;-61
2021/07/15 03:21:04;;;;;;;1.58;1.48;;;;;;;17.75;92.12;99664.94;10417932;28;19920;-61
2021/07/15 03:26:07;;;;;;;2.33;1.50;;;;;;;17.73;92.05;99659.75;10424598;28;20517;-61
2021/07/15 03:31:11;;;;;;;2.15;1.50;;;;;;;17.76;91.16;99670.16;10420387;28;20048;-61
2021/07/15 03:36:13;;;;;;;;;;;;;;;17.75;91.13;99659.56;10424455;28;20137;-61
2021/07/15 03:41:15;;;;;;;2.08;1.35;;;;;;;17.68;90.59;99648.69;10426557;28;19921;-61
2021/07/15 03:46:19;;;;;;;1.30;0.88;;;;;;;17.73;90.53;99650.81;10419474;28;20057;-61
2021/07/15 03:51:21;;;;;;;2.22;1.40;;;;;;;17.75;90.70;99664.94;10412485;28;20795;-61
2021/07/15 03:56:23;;;;;;;1.27;0.95;;;;;;;17.77;90.96;99670.97;10414290;28;20046;-61
2021/07/15 04:01:25;;;;;;;1.35;1.00;;;;;;;17.80;91.16;99673.28;10412402;28;20052;-61
2021/07/15 04:06:28;;;;;;;2.75;1.35;;;;;;;17.82;90.97;99671.28;10420840;28;20059;-61
2021/07/15 04:11:32;;;;;;;1.30;1.08;;;;;;;17.86;91.21;99683.31;10413607;28;20044;-61
2021/07/15 04:16:47;;;;;;;1.95;1.33;;;;;;;17.89;91.11;99685.69;10427249;28;20391;-61
2021/07/15 04:21:50;;;;;;;;;;;;;;;17.90;90.88;99690.06;10420721;28;20045;-61
2021/07/15 04:26:54;;;;;;;2.50;1.23;;;;;;;17.95;90.86;99703.78;10425914;28;20370;-61
2021/07/15 04:32:15;;;;;;;3.33;1.42;;;;;;;17.93;90.39;99700.44;10427615;28;20284;-61
2021/07/15 04:37:18;;;;;;;2.60;1.20;;;;;;;17.89;90.06;99693.75;10418034;28;20063;-62
2021/07/15 04:42:21;;;;;;;1.33;0.98;;;;;;;17.91;89.63;99696.25;10434956;28;20046;-62
2021/07/15 04:47:24;;;;;;;1.52;1.00;;;;;;;17.93;89.06;99686.97;10436094;28;20433;-62
2021/07/15 04:52:28;;;;;;;2.25;0.70;;;;;;;17.90;87.80;99700.81;10418296;28;20552;-62
2021/07/15 04:57:30;;;;;;;1.65;0.75;;;;;;;17.91;87.66;99709.72;10425533;28;20045;-62
2021/07/15 05:02:31;;;;;;;0.93;0.65;;;;;;;17.93;87.82;99721.16;10420848;28;20049;-61
2021/07/15 05:07:35;;;;;;;0.90;0.82;;;;;;;17.97;86.71;99733.22;10418354;28;20073;-62
2021/07/15 05:12:38;;;;;;;;;;;;;;;18.00;86.27;99728.31;10416941;28;20056;-62
2021/07/15 05:17:39;;;;;;;3.28;0.50;;;;;;;18.06;85.19;99736.66;10428370;28;20305;-62
2021/07/15 05:22:41;;;;;;;0.52;0.50;;;;;;;18.09;85.06;99720.97;10421983;28;20057;-62
2021/07/15 05:27:43;;;;;;;0.68;0.40;;;;;;;18.16;84.44;99721.88;10435048;22;20053;-62
2021/07/15 05:32:45;;;;;;;0.85;0.60;;;;;;;18.19;83.83;99726.94;10375026;28;20530;-61
2021/07/15 05:37:47;;;;;;;1.75;0.40;;;;;;;18.25;83.49;99719.94;10395790;28;20056;-61
2021/07/15 05:42:48;;;;;;;3.50;0.60;;;;;;;18.34;83.40;99724.19;10387493;28;20049;-62
2021/07/15 05:47:50;;;;;;;1.73;0.40;;;;;;;18.42;83.40;99727.81;10390388;28;20050;-61
2021/07/15 05:52:51;;;;;;;0.60;0.47;;;;;;;18.50;83.08;99722.34;10395411;28;20680;-61
2021/07/15 05:57:53;;;;;;;3.67;0.50;;;;;;;18.62;82.76;99730.78;10392767;28;20060;-62
2021/07/15 06:02:55;;;;;;;2.28;0.52;;;;;;;18.67;81.05;99729.19;10395857;28;20049;-61
2021/07/15 06:08:00;;;;;;;2.22;0.43;;;;;;;18.76;80.82;99726.38;10387345;28;20056;-61
2021/07/15 06:13:02;;;;;;;2.92;0.60;;;;;;;18.75;79.44;99713.91;10376083;28;20149;-61
2021/07/15 06:18:03;;;;;;;1.73;0.90;;;;;;;18.81;79.31;99723.94;10386892;28;20045;-61
2021/07/15 06:23:05;;;;;;;3.03;0.50;;;;;;;18.99;78.59;99731.63;10386969;28;20053;-62
2021/07/15 06:28:07;;;;;;;2.50;0.40;;;;;;;19.47;78.20;99733.75;10384199;28;20054;-62
2021/07/15 06:33:08;;;;;;;0.38;0.10;;;;;;;19.82;75.13;99736.59;10380537;28;20045;-62
2021/07/15 06:38:10;;;;;;;1.15;0.30;;;;;;;19.80;73.33;99734.06;10378145;28;20506;-62
2021/07/15 06:43:11;;;;;;;0.47;0.10;;;;;;;19.94;73.30;99735.00;10373204;28;20057;-62
2021/07/15 06:48:13;;;;;;;1.27;0.28;;;;;;;19.94;72.64;99724.19;10382130;28;20052;-62
2021/07/15 06:53:15;;;;;;;0.65;0.10;;;;;;;19.86;71.06;99737.84;10397781;28;20060;-62
2021/07/15 06:58:17;;;;;;;1.10;0.20;;;;;;;19.92;72.56;99732.50;10386595;28;20243;-63
2021/07/15 07:03:18;;;;;;;1.10;0.20;;;;;;;19.78;73.21;99736.94;10386712;28;20061;-61
2021/07/15 07:08:20;;;;;;;1.17;0.13;;;;;;;19.94;72.73;99743.09;10389814;28;20049;-61
2021/07/15 07:13:21;;;;;;;1.60;0.40;;;;;;;20.06;72.39;99743.41;10393135;28;20049;-62
2021/07/15 07:18:23;;;;;;;2.05;0.20;;;;;;;20.38;72.37;99747.31;10379031;28;20057;-62
2021/07/15 07:23:25;;;;;;;1.00;0.20;;;;;;;20.38;71.82;99762.69;10383805;28;20045;-62
2021/07/15 07:28:27;;;;;;;0.60;0.32;;;;;;;20.43;71.27;99757.50;10385331;28;20056;-62
2021/07/15 07:33:29;;;;;;;0.95;0.30;;;;;;;20.45;71.46;99764.41;10388602;28;20498;-63
2021/07/15 07:38:30;;;;;;;2.03;0.20;;;;;;;20.51;72.23;99761.91;10381817;28;20041;-62
2021/07/15 07:43:32;;;;;;;0.88;0.20;;;;;;;20.57;71.57;99769.25;10377053;28;20045;-57
2021/07/15 07:48:34;;;;;;;1.05;0.10;;;;;;;20.66;70.68;99779.72;10373066;28;20049;-58
2021/07/15 07:53:35;;;;;;;2.15;0.20;;;;;;;20.67;69.37;99777.84;10386331;28;20047;-59
2021/07/15 07:58:37;;;;;;;0.55;0.30;;;;;;;20.89;68.83;99780.44;10389484;28;20046;-58
2021/07/15 08:03:39;;;;;;;0.40;0.10;;;;;;;21.03;68.03;99782.13;10386134;28;20070;-57
2021/07/15 08:08:41;;;;;;;1.58;0.30;;;;;;;21.26;68.43;99780.94;10390866;28;20057;-58
2021/07/15 08:13:42;;;;;;;0.77;0.25;;;;;;;21.37;66.98;99794.69;10393637;28;20510;-58
2021/07/15 08:18:44;;;;;;;2.60;0.30;;;;;;;21.25;66.79;99795.53;10394017;28;20042;-58
2021/07/15 08:23:47;;;;;;;0.45;0.30;;;;;;;21.12;66.76;99799.03;10393995;28;20418;-58
2021/07/15 08:28:48;;;;;;;0.47;0.20;;;;;;;21.16;65.72;99801.09;10393840;28;20060;-58
2021/07/15 08:33:50;;;;;;;1.30;0.10;;;;;;;21.21;65.98;99802.38;10394152;28;20056;-58
2021/07/15 08:38:52;;;;;;;0.40;0.10;;;;;;;21.27;64.97;99799.72;10389409;28;20049;-59
2021/07/15 08:43:53;;;;;;;0.38;0.10;;;;;;;21.49;64.29;99803.06;10385140;28;20048;-59
2021/07/15 08:48:55;;;;;;;1.85;1.58;;;;;;;21.63;63.40;99795.84;10413193;28;20660;-61
2021/07/15 08:53:58;;;;;;;0.90;0.10;;;;;;;21.50;63.88;99791.22;10392985;28;20045;-59
2021/07/15 08:59:00;;;;;;;0.77;0.20;;;;;;;21.83;63.74;99787.72;10391078;28;20045;-60
2021/07/15 09:04:03;;;;;;;0.45;0.10;;;;;;;22.35;61.54;99816.88;10395230;28;20625;-60
2021/07/15 09:09:05;;;;;;;;;;;;;;;22.67;60.09;99804.28;10399780;28;20042;-61
2021/07/15 09:14:15;;;;;;;0.70;0.10;;;;;;;22.98;59.51;99804.56;10388343;28;19925;-61
2021/07/15 09:19:19;;;;;;;1.65;0.10;;;;;;;23.14;56.96;99804.09;10397382;28;20398;-62
2021/07/15 09:24:33;;;;;;;0.35;0.20;;;;;;;23.32;57.91;99805.25;10395393;28;20069;-61
2021/07/15 09:29:34;;;;;;;0.75;0.10;;;;;;;23.34;57.60;99803.16;10390158;28;20480;-64
2021/07/15 09:34:37;;;;;;;3.20;0.30;;;;;;;23.28;57.14;99805.69;10382327;28;20765;-64
2021/07/15 09:39:45;;;;;;;1.42;0.20;;;;;;;23.28;55.66;99819.28;10392578;28;20658;-64
2021/07/15 09:44:48;;;;;;;2.28;0.20;;;;;;;23.35;56.76;99824.66;10394478;28;20418;-63
2021/07/15 09:49:50;;;;;;;0.30;0.10;;;;;;;23.19;56.59;99817.84;10391545;28;20099;-63
2021/07/15 09:54:52;;;;;;;2.17;0.20;;;;;;;23.25;56.57;99827.00;10393087;28;20053;-63
2021/07/15 09:59:56;;;;;;;0.82;0.20;;;;;;;23.21;56.93;99823.91;10394494;28;20052;-65
2021/07/15 10:04:58;;;;;;;0.68;0.15;;;;;;;23.44;55.84;99814.38;10392997;28;20044;-65
2021/07/15 10:10:16;;;;;;;3.50;0.10;;;;;;;23.62;53.40;99817.16;10384945;28;20050;-63
2021/07/15 10:15:18;;;;;;;0.43;0.10;;;;;;;23.44;54.64;99825.22;10381501;28;20053;-64
2021/07/15 10:20:20;;;;;;;0.57;0.10;;;;;;;23.14;55.33;99812.25;10399507;28;20094;-64
2021/07/15 10:25:22;;;;;;;0.82;0.43;;;;;;;23.49;54.36;99809.09;10390765;28;20044;-64
2021/07/15 10:30:24;;;;;;;0.30;0.10;;;;;;;23.92;51.89;99821.97;10389785;28;22080;-64
2021/07/15 10:35:26;;;;;;;0.98;0.20;;;;;;;23.99;51.36;99822.75;10388124;28;20058;-64
2021/07/15 10:40:27;;;;;;;0.88;0.30;;;;;;;23.51;54.68;99834.19;10387908;28;20053;-63
2021/07/15 10:45:29;;;;;;;0.85;0.22;;;;;;;23.24;56.13;99837.03;10389831;28;20045;-64
2021/07/15 10:50:31;;;;;;;0.90;0.20;;;;;;;23.03;56.64;99843.59;10390979;28;20068;-64
2021/07/15 10:55:33;;;;;;;1.65;0.38;;;;;;;22.94;57.10;99845.69;10386091;28;20553;-63
2021/07/15 11:00:59;;;;;;;1.75;0.30;;;;;;;22.80;56.45;99851.38;10425295;27;20428;-63
2021/07/15 11:06:01;;;;;;;0.90;0.20;;;;;;;22.64;57.36;99847.25;10381465;28;20693;-63
2021/07/15 11:11:03;;;;;;;1.65;0.17;;;;;;;22.87;57.82;99853.03;10381588;28;20137;-64
2021/07/15 11:16:07;;;;;;;3.28;0.25;;;;;;;22.93;57.49;99863.03;10383337;28;20046;-63
2021/07/15 11:21:24;;;;;;;0.75;0.20;;;;;;;23.78;55.22;99864.72;10370702;28;20058;-63
2021/07/15 11:26:32;;;;;;;0.82;0.13;;;;;;;24.99;51.86;99852.72;10362565;23;20237;-63
2021/07/15 11:31:42;;;;;;;2.38;1.10;;;;;;;26.27;49.16;99855.28;10301638;28;20411;-64
2021/07/15 11:36:44;;;;;;;0.60;0.15;;;;;;;25.94;48.53;99860.22;10285537;28;20936;-62
2021/07/15 11:41:47;;;;;;;0.60;0.20;;;;;;;26.18;46.65;99859.44;10287801;28;20046;-63
2021/07/15 11:46:49;;;;;;;1.55;0.20;;;;;;;26.32;46.78;99865.50;10312423;28;20042;-62
2021/07/15 11:51:51;;;;;;;1.25;0.30;;;;;;;26.63;47.05;99862.41;10312263;28;20121;-62
2021/07/15 11:57:11;;;;;;;0.95;0.20;;;;;;;26.87;45.60;99862.38;10308114;28;20534;-63
2021/07/15 12:02:37;;;;;;;1.00;0.35;;;;;;;26.84;45.70;99862.03;10299900;28;20404;-62
2021/07/15 12:07:41;;;;;;;1.10;0.22;;;;;;;26.27;44.84;99868.94;10300461;28;20061;-62
2021/07/15 12:12:43;;;;;;;0.70;0.10;;;;;;;25.62;47.44;99867.00;10258831;28;20499;-63
2021/07/15 12:17:49;;;;;;;1.00;0.20;;;;;;;25.93;47.78;99863.19;10270181;28;20058;-63
2021/07/15 12:22:56;;;;;;;0.35;0.15;;;;;;;26.51;44.24;99864.28;10266135;28;20119;-63
2021/07/15 12:28:02;;;;;;;1.15;0.20;;;;;;;26.37;46.47;99861.00;10275853;28;20415;-62
2021/07/15 12:33:04;;;;;;;0.65;0.10;;;;;;;26.55;44.30;99862.75;10273588;28;20050;-62
2021/07/15 12:38:31;;;;;;;0.40;0.10;;;;;;;26.54;44.88;99857.53;10276794;28;20420;-63
2021/07/15 12:43:46;;;;;;;1.85;0.20;;;;;;;26.84;44.36;99862.03;10269704;28;20058;-61
2021/07/15 12:48:52;;;;;;;1.52;0.30;;;;;;;27.09;44.96;99870.75;10268936;28;20047;-63
2021/07/15 12:53:54;;;;;;;0.38;0.20;;;;;;;27.24;43.38;99872.16;10290081;28;20489;-63
2021/07/15 13:05:19;;;;;;;0.75;0.20;;;;;;;26.96;42.26;99860.09;10262276;28;20074;-62
2021/07/15 13:15:24;;;;;;;0.50;0.10;;;;;;;27.10;41.68;99861.50;10263048;28;20062;-63
2021/07/15 13:20:26;;;;;;;0.37;0.20;;;;;;;27.32;42.21;99855.34;10259209;28;20051;-62
2021/07/15 13:25:28;;;;;;;0.68;0.08;;;;;;;27.42;42.06;99847.38;10259925;28;20050;-63
2021/07/15 13:30:30;;;;;;;0.20;0.10;;;;;;;27.22;43.07;99841.50;10259314;28;20051;-63
2021/07/15 13:35:36;;;;;;;1.03;0.23;;;;;;;27.16;41.74;99849.59;10257707;28;20058;-62
2021/07/15 13:40:40;;;;;;;1.30;0.20;;;;;;;27.10;42.20;99850.59;10254754;28;20060;-62
2021/07/15 13:45:43;;;;;;;0.80;0.43;;;;;;;26.80;43.42;99850.78;10259138;28;20051;-62
2021/07/15 13:50:47;;;;;;;0.30;0.10;;;;;;;26.55;43.96;99849.13;10259691;28;20055;-62
2021/07/15 13:55:49;;;;;;;1.13;0.10;;;;;;;26.73;44.15;99850.91;10273037;28;20051;-62
2021/07/15 14:00:53;;;;;;;0.83;0.20;;;;;;;26.62;44.03;99854.47;10257651;28;20563;-62
2021/07/15 14:05:58;;;;;;;0.47;0.20;;;;;;;26.62;44.41;99857.19;10256308;28;20058;-62
2021/07/15 14:11:00;;;;;;;2.15;0.10;;;;;;;26.33;43.57;99857.06;10256717;28;20054;-63
2021/07/15 14:16:02;;;;;;;0.77;0.30;;;;;;;26.09;44.46;99861.69;10256040;28;20058;-62
2021/07/15 14:21:06;;;;;;;0.52;0.25;;;;;;;25.92;45.27;99864.25;10258713;28;20544;-61
2021/07/15 14:26:08;;;;;;;0.20;0.10;;;;;;;25.65;44.17;99867.38;10258208;28;20057;-62
2021/07/15 14:31:10;;;;;;;0.50;0.30;;;;;;;25.48;45.25;99867.19;10256544;28;20043;-63
2021/07/15 14:36:11;;;;;;;0.60;0.30;;;;;;;25.29;45.83;99873.72;10254334;28;20496;-62
2021/07/15 14:41:13;;;;;;;1.38;0.30;;;;;;;25.17;46.59;99870.94;10263148;28;20058;-62
2021/07/15 14:46:16;;;;;;;2.15;0.70;;;;;;;24.99;47.13;99869.88;10257435;28;20051;-63
2021/07/15 14:51:18;;;;;;;0.68;0.20;;;;;;;24.65;47.73;99869.44;10260377;28;20129;-62
2021/07/15 14:56:21;;;;;;;0.57;0.20;;;;;;;24.58;47.87;99863.25;10252007;28;20551;-62
2021/07/15 15:01:23;;;;;;;1.10;0.15;;;;;;;24.63;47.53;99865.28;10254017;28;20047;-61
2021/07/15 15:06:25;;;;;;;0.45;0.10;;;;;;;24.69;48.04;99865.19;10250790;28;20157;-62
2021/07/15 15:11:26;;;;;;;0.30;0.20;;;;;;;24.74;47.84;99870.00;10256440;28;20074;-62
2021/07/15 15:16:29;;;;;;;0.13;0.10;;;;;;;24.63;47.77;99871.53;10253126;28;20061;-61
2021/07/15 15:21:31;;;;;;;0.73;0.20;;;;;;;24.56;48.55;99870.78;10249091;28;20060;-61
2021/07/15 15:26:34;;;;;;;1.38;0.40;;;;;;;24.58;49.73;99879.56;10244425;28;20615;-62
2021/07/15 15:31:36;;;;;;;0.30;0.30;;;;;;;24.53;49.80;99893.00;10255220;28;20681;-62
2021/07/15 15:36:38;;;;;;;2.10;0.20;;;;;;;24.40;50.65;99899.38;10256930;28;20053;-61
2021/07/15 15:41:39;;;;;;;1.35;0.38;;;;;;;24.20;51.77;99909.59;10231363;28;20092;-62
2021/07/15 15:46:59;;;;;;;0.63;0.30;;;;;;;24.03;52.69;99931.06;10224150;28;20051;-62
2021/07/15 15:52:03;;;;;;;1.15;0.20;;;;;;;23.88;53.54;99945.78;10225163;28;20058;-62
2021/07/15 15:57:06;;;;;;;0.55;0.40;;;;;;;23.88;54.26;99945.78;10226821;28;20055;-61
2021/07/15 16:02:08;;;;;;;0.80;0.43;;;;;;;23.81;56.13;99956.66;10223695;28;20052;-63
2021/07/15 16:07:10;;;;;;;0.70;0.33;;;;;;;23.89;55.26;99943.91;10227798;28;20046;-61
2021/07/15 16:12:12;;;;;;;1.40;0.60;;;;;;;23.90;54.58;99938.25;10216272;28;20043;-62
2021/07/15 16:17:13;;;;;;;1.70;0.47;;;;;;;23.48;55.73;99935.13;10220822;28;20043;-62
2021/07/15 16:22:15;;;;;;;1.52;0.40;;;;;;;23.26;56.28;99943.53;10262982;28;20058;-61
2021/07/15 16:27:17;;;;;;;0.88;0.43;;;;;;;23.03;56.67;99943.16;10256552;28;20077;-61
2021/07/15 16:32:19;;;;;;;1.65;0.60;;;;;;;22.84;58.69;99953.03;10257018;28;20507;-62
2021/07/15 16:37:21;;;;;;;2.00;0.60;;;;;;;22.65;60.29;99949.28;10254872;28;20584;-61
2021/07/15 16:42:23;;;;;;;0.65;0.55;;;;;;;22.76;59.73;99940.53;10259336;28;20047;-62
2021/07/15 16:47:25;;;;;;;1.25;0.88;;;;;;;22.52;59.15;99933.84;10260253;28;20046;-62
2021/07/15 16:52:27;;;;;;;1.10;0.40;;;;;;;22.68;58.74;99919.03;10257109;28;20101;-62
2021/07/15 16:57:29;;;;;;;1.45;0.75;;;;;;;22.74;57.85;99913.59;10256823;28;20058;-61
2021/07/15 17:02:30;;;;;;;1.58;1.48;;;;;;;22.64;58.48;99917.78;10255402;28;20054;-64
2021/07/15 17:07:32;;;;;;;1.55;0.50;;;;;;;22.48;58.04;99921.78;10256803;28;20061;-62
2021/07/15 17:12:34;;;;;;;0.80;0.50;;;;;;;22.44;58.89;99918.63;10258768;28;20050;-62
2021/07/15 17:17:37;;;;;;;0.93;0.55;;;;;;;22.32;59.34;99934.69;10261402;28;20062;-62
2021/07/15 17:22:39;;;;;;;2.00;0.63;;;;;;;22.27;60.01;99939.06;10252416;28;20045;-59
2021/07/15 17:27:41;;;;;;;1.05;0.70;;;;;;;22.11;59.75;99924.84;10254930;28;20516;-63
2021/07/15 17:32:43;;;;;;;1.00;0.82;;;;;;;22.13;60.57;99949.88;10272003;22;20082;-69
2021/07/15 17:37:44;;;;;;;0.82;0.75;;;;;;;22.07;61.54;99956.13;10306231;28;20137;-69
2021/07/15 17:42:46;;;;;;;2.20;0.80;;;;;;;21.98;62.29;99958.19;10324428;28;20051;-69
2021/07/15 17:47:49;;;;;;;1.35;0.52;;;;;;;21.83;62.77;99954.84;10291833;28;20051;-68
2021/07/15 17:52:51;;;;;;;3.47;1.48;;;;;;;21.79;64.76;99965.22;10296386;28;20046;-69
2021/07/15 17:57:54;;;;;;;1.70;1.00;;;;;;;21.73;66.24;99949.81;10292777;28;20047;-68
2021/07/15 18:02:56;;;;;;;1.60;1.03;;;;;;;21.53;67.56;99963.28;10295235;28;20073;-70
2021/07/15 18:07:58;;;;;;;1.40;0.90;;;;;;;21.54;67.65;99983.91;10294550;28;20156;-68
2021/07/15 18:13:03;;;;;;;1.40;1.20;;;;;;;21.55;68.75;99996.41;10290521;28;20046;-67
2021/07/15 18:18:07;;;;;;;1.50;0.90;;;;;;;21.53;68.57;99988.47;10282807;28;20498;-67
2021/07/15 18:23:10;;;;;;;2.33;1.40;;;;;;;21.54;68.28;99992.00;10292390;28;20126;-66
2021/07/15 18:28:13;;;;;;;2.17;1.20;;;;;;;21.50;68.66;99999.72;10298421;28;20303;-67
2021/07/15 18:33:15;;;;;;;1.40;0.75;;;;;;;21.44;68.20;100016.75;10291785;28;20081;-69
2021/07/15 18:38:18;;;;;;;1.95;1.02;;;;;;;21.36;68.63;100014.19;10297830;28;20042;-69
2021/07/15 18:43:20;;;;;;;1.27;0.77;;;;;;;21.26;68.81;100002.88;10295413;28;20516;-67
2021/07/15 18:48:22;;;;;;;1.70;0.80;;;;;;;21.17;68.76;100010.34;10292102;28;20190;-66
2021/07/15 18:53:23;;;;;;;1.60;1.00;;;;;;;21.11;69.52;100006.56;10293505;28;20612;-65
2021/07/15 18:58:27;;;;;;;2.72;1.20;;;;;;;21.00;69.80;99997.13;10297675;28;20065;-66
2021/07/15 19:03:28;;;;;;;;;;;;;;;20.93;70.02;100003.53;10296967;28;20072;-66
2021/07/15 19:08:30;;;;;;;1.33;0.95;;;;;;;20.82;70.21;100007.59;10295474;28;19922;-66
2021/07/15 19:13:32;;;;;;;1.25;1.05;;;;;;;20.72;69.97;100013.34;10292438;28;20046;-66
2021/07/15 19:18:34;;;;;;;2.10;1.10;;;;;;;20.62;70.85;100037.16;10275696;28;20055;-67
2021/07/15 19:23:36;;;;;;;2.63;1.33;;;;;;;20.55;71.16;100044.38;10286994;28;20053;-67
2021/07/15 19:28:37;;;;;;;1.77;1.38;;;;;;;20.44;71.63;100048.44;10299876;28;20057;-67
2021/07/15 19:33:40;;;;;;;2.03;1.30;;;;;;;20.37;72.08;100053.78;10297853;28;20042;-66
2021/07/15 19:38:41;;;;;;;2.25;0.90;;;;;;;20.34;72.63;100070.38;10299659;28;20050;-66
2021/07/15 19:43:43;;;;;;;2.97;1.67;;;;;;;20.26;73.26;100090.25;10300146;28;20038;-66
2021/07/15 19:48:44;;;;;;;3.05;2.25;;;;;;;20.19;73.88;100099.31;10301640;28;20398;-66
2021/07/15 19:53:46;;;;;;;3.35;1.30;;;;;;;20.10;74.66;100103.97;10302299;28;20057;-66
2021/07/15 19:58:47;;;;;;;6.95;2.17;;;;;;;20.05;74.53;100103.72;10303304;28;20055;-67
2021/07/15 20:03:52;;;;;;;3.08;1.60;;;;;;;20.01;74.85;100102.41;10292177;28;20047;-67
2021/07/15 20:08:54;;;;;;;2.80;1.25;;;;;;;19.95;75.20;100110.25;10309580;28;20050;-66
2021/07/15 20:13:56;;;;;;;2.33;2.10;;;;;;;19.87;75.50;100104.13;10297065;28;20054;-66
2021/07/15 20:18:57;;;;;;;2.28;1.70;;;;;;;19.88;75.43;100122.00;10295746;28;20064;-65
2021/07/15 20:23:59;;;;;;;1.38;1.10;;;;;;;19.82;74.90;100120.06;10295723;28;20043;-66
2021/07/15 20:29:01;;;;;;;4.28;1.13;;;;;;;19.72;75.93;100121.13;10297229;28;20050;-66
2021/07/15 20:34:03;;;;;;;3.50;1.70;;;;;;;19.48;76.34;100134.91;10297546;28;20505;-66
2021/07/15 20:39:04;;;;;;;2.47;1.75;;;;;;;19.43;77.24;100139.00;10299773;28;20110;-65
2021/07/15 20:44:06;;;;;;;3.67;2.50;;;;;;;19.23;78.77;100144.09;10299225;28;20536;-67
2021/07/15 20:49:08;;;;;;;5.18;2.88;;;;;;;19.26;77.43;100169.88;10297465;28;20750;-66
2021/07/15 20:54:09;;;;;;;5.20;3.03;;;;;;;18.94;79.08;100170.97;10292176;28;20049;-67
2021/07/15 20:59:11;;;;;;;3.10;1.88;;;;;;;19.13;78.78;100165.09;10286613;28;20049;-66
2021/07/15 21:04:13;;;;;;;4.20;2.13;;;;;;;19.05;79.92;100168.69;10289307;28;20047;-67
2021/07/15 21:09:15;;;;;;;3.17;2.85;;;;;;;18.90;81.36;100171.34;10272084;28;20612;-67
2021/07/15 21:14:17;;;;;;;5.32;3.13;;;;;;;18.70;83.41;100168.22;10276951;28;20059;-68
2021/07/15 21:19:19;;;;;;;5.03;2.70;;;;;;;18.75;83.53;100169.56;10272714;28;20542;-67
2021/07/15 21:24:21;;;;;;;3.85;2.55;;;;;;;18.90;82.27;100171.34;10275234;28;20046;-67
2021/07/15 21:29:22;;;;;;;3.65;1.90;;;;;;;19.02;81.47;100174.44;10270229;28;20046;-69
2021/07/15 21:34:24;;;;;;;2.67;2.13;;;;;;;19.05;81.09;100170.53;10267871;28;20519;-67
2021/07/15 21:39:25;;;;;;;3.58;2.25;;;;;;;19.14;80.88;100174.00;10273918;28;20058;-67
2021/07/15 21:44:27;;;;;;;5.40;2.35;;;;;;;19.17;80.51;100171.81;10275787;28;20521;-67
2021/07/15 21:49:28;;;;;;;2.53;2.33;;;;;;;19.20;80.89;100167.88;10276139;28;20047;-67
2021/07/15 21:54:30;;;;;;;2.60;2.30;;;;;;;19.17;80.44;100160.16;10282791;28;20046;-67
2021/07/15 21:59:32;;;;;;;5.20;2.90;;;;;;;19.17;80.66;100173.63;10263696;28;20042;-67
2021/07/15 22:04:34;;;;;;;2.50;2.08;;;;;;;19.15;80.62;100173.81;10253946;28;20055;-67
2021/07/15 22:09:35;;;;;;;3.10;1.75;;;;;;;19.11;80.70;100167.13;10269944;28;20469;-67
2021/07/15 22:14:37;;;;;;;1.95;1.58;;;;;;;19.16;80.27;100183.59;10278516;28;20053;-67
2021/07/15 22:19:38;;;;;;;1.98;1.67;;;;;;;19.18;80.29;100178.03;10278078;28;20480;-67
2021/07/15 22:24:42;;;;;;;2.60;1.60;;;;;;;19.19;80.09;100163.53;10267608;28;20428;-66
2021/07/15 22:29:44;;;;;;;2.45;1.90;;;;;;;19.16;80.44;100166.59;10272758;28;20469;-67
2021/07/15 22:34:45;;;;;;;1.88;1.65;;;;;;;19.12;80.72;100157.19;10265909;28;20081;-67
2021/07/15 22:39:47;;;;;;;3.58;2.45;;;;;;;19.13;80.59;100159.69;10270768;28;20146;-68
2021/07/15 22:44:48;;;;;;;2.70;2.15;;;;;;;19.11;81.04;100166.28;10271942;28;20634;-67
2021/07/15 22:49:50;;;;;;;3.42;1.83;;;;;;;19.14;80.73;100171.31;10270188;28;20050;-67
2021/07/15 22:54:51;;;;;;;3.00;1.67;;;;;;;19.13;81.46;100181.28;10266401;28;20062;-67
2021/07/15 22:59:53;;;;;;;3.13;1.80;;;;;;;19.14;81.11;100192.91;10268453;28;20047;-68
2021/07/15 23:04:55;;;;;;;2.75;2.05;;;;;;;19.11;80.90;100187.88;10264335;28;20038;-68
2021/07/15 23:09:56;;;;;;;3.97;2.00;;;;;;;19.14;80.75;100184.78;10266027;28;20043;-68
2021/07/15 23:14:58;;;;;;;2.50;1.50;;;;;;;19.17;80.69;100176.34;10267814;28;20055;-67
2021/07/15 23:19:59;;;;;;;2.70;1.33;;;;;;;19.10;80.83;100170.84;10272613;28;20519;-68
2021/07/15 23:25:03;;;;;;;2.58;2.05;;;;;;;19.13;81.10;100180.44;10263929;28;20054;-68
2021/07/15 23:30:07;;;;;;;2.47;1.90;;;;;;;19.12;81.33;100200.34;10272036;28;20058;-68
2021/07/15 23:35:10;;;;;;;;;;;;;;;19.05;80.94;100195.66;10279163;28;20057;-67
2021/07/15 23:40:14;;;;;;;2.50;1.55;;;;;;;19.01;81.18;100183.56;10273134;28;19928;-67